sensor_id;sensor_type;location;lat;lon;timestamp;temperature;humidity
21035;DHT22;10676;50.848;3.272;2022-11-15T00:00:22;12.50;99.90
21035;DHT22;10676;50.848;3.272;2022-11-15T00:02:47;12.60;99.90
21035;DHT22;10676;50.848;3.272;2022-11-15T00:05:13;12.60;99.90
21035;DHT22;10676;50.848;3.272;2022-11-15T00:07:39;12.60;99.90
21035;DHT22;10676;50.848;3.272;2022-11-15T00:10:05;12.70;99.90
21035;DHT22;10676;50.848;3.272;2022-11-15T00:12:30;12.70;99.90
21035;DHT22;10676;50.848;3.272;2022-11-15T00:14:56;12.70;99.90
21035;DHT22;10676;50.848;3.272;2022-11-15T00:17:22;12.70;99.90
21035;DHT22;10676;50.848;3.272;2022-11-15T00:19:47;12.70;99.90
21035;DHT22;10676;50.848;3.272;2022-11-15T00:22:13;12.70;99.90
21035;DHT22;10676;50.848;3.272;2022-11-15T00:24:38;12.70;99.90
21035;DHT22;10676;50.848;3.272;2022-11-15T00:27:04;12.60;99.90
21035;DHT22;10676;50.848;3.272;2022-11-15T00:29:29;12.60;99.90
21035;DHT22;10676;50.848;3.272;2022-11-15T00:31:55;12.60;99.90
21035;DHT22;10676;50.848;3.272;2022-11-15T00:34:21;12.50;99.90
21035;DHT22;10676;50.848;3.272;2022-11-15T00:36:46;12.50;99.90
21035;DHT22;10676;50.848;3.272;2022-11-15T00:39:12;12.50;99.90
21035;DHT22;10676;50.848;3.272;2022-11-15T00:41:37;12.50;99.90
21035;DHT22;10676;50.848;3.272;2022-11-15T00:44:03;12.50;99.90
21035;DHT22;10676;50.848;3.272;2022-11-15T00:46:29;12.50;99.90
21035;DHT22;10676;50.848;3.272;2022-11-15T00:48:54;12.50;99.90
21035;DHT22;10676;50.848;3.272;2022-11-15T00:51:20;12.50;99.90
21035;DHT22;10676;50.848;3.272;2022-11-15T00:53:45;12.50;99.90
21035;DHT22;10676;50.848;3.272;2022-11-15T00:56:11;12.50;99.90
21035;DHT22;10676;50.848;3.272;2022-11-15T00:58:36;12.50;99.90
21035;DHT22;10676;50.848;3.272;2022-11-15T01:01:13;12.50;99.90
21035;DHT22;10676;50.848;3.272;2022-11-15T01:03:40;12.50;99.90
21035;DHT22;10676;50.848;3.272;2022-11-15T01:06:07;12.50;99.90
21035;DHT22;10676;50.848;3.272;2022-11-15T01:08:32;12.50;99.90
21035;DHT22;10676;50.848;3.272;2022-11-15T01:11:07;12.60;99.90
21035;DHT22;10676;50.848;3.272;2022-11-15T01:13:36;12.50;99.90
21035;DHT22;10676;50.848;3.272;2022-11-15T01:16:15;12.50;99.90
21035;DHT22;10676;50.848;3.272;2022-11-15T01:18:43;12.50;99.90
21035;DHT22;10676;50.848;3.272;2022-11-15T01:21:11;12.40;99.90
21035;DHT22;10676;50.848;3.272;2022-11-15T01:23:37;12.40;99.90
21035;DHT22;10676;50.848;3.272;2022-11-15T01:26:05;12.50;99.90
21035;DHT22;10676;50.848;3.272;2022-11-15T01:28:33;12.40;99.90
21035;DHT22;10676;50.848;3.272;2022-11-15T01:31:00;12.50;99.90
21035;DHT22;10676;50.848;3.272;2022-11-15T01:33:27;12.40;99.90
21035;DHT22;10676;50.848;3.272;2022-11-15T01:35:53;12.40;99.90
21035;DHT22;10676;50.848;3.272;2022-11-15T01:38:18;12.40;99.90
21035;DHT22;10676;50.848;3.272;2022-11-15T01:40:44;12.30;99.90
21035;DHT22;10676;50.848;3.272;2022-11-15T01:45:54;12.30;99.90
21035;DHT22;10676;50.848;3.272;2022-11-15T01:48:22;12.30;99.90
21035;DHT22;10676;50.848;3.272;2022-11-15T01:50:51;12.30;99.90
21035;DHT22;10676;50.848;3.272;2022-11-15T01:53:17;12.30;99.90
21035;DHT22;10676;50.848;3.272;2022-11-15T01:55:45;12.30;99.90
21035;DHT22;10676;50.848;3.272;2022-11-15T01:58:10;12.20;99.90
21035;DHT22;10676;50.848;3.272;2022-11-15T02:00:36;12.20;99.90
21035;DHT22;10676;50.848;3.272;2022-11-15T02:03:02;12.20;99.90
21035;DHT22;10676;50.848;3.272;2022-11-15T02:05:29;12.20;99.90
21035;DHT22;10676;50.848;3.272;2022-11-15T02:07:55;12.20;99.90
21035;DHT22;10676;50.848;3.272;2022-11-15T02:10:23;12.10;99.90
21035;DHT22;10676;50.848;3.272;2022-11-15T02:12:49;12.10;99.90
21035;DHT22;10676;50.848;3.272;2022-11-15T02:15:15;12.00;99.90
21035;DHT22;10676;50.848;3.272;2022-11-15T02:31:48;11.70;99.90
21035;DHT22;10676;50.848;3.272;2022-11-15T02:34:50;11.60;99.90
21035;DHT22;10676;50.848;3.272;2022-11-15T02:37:45;11.50;99.90
21035;DHT22;10676;50.848;3.272;2022-11-15T02:43:22;11.30;99.90
21035;DHT22;10676;50.848;3.272;2022-11-15T02:46:14;11.20;99.90
21035;DHT22;10676;50.848;3.272;2022-11-15T02:48:43;11.10;99.90
21035;DHT22;10676;50.848;3.272;2022-11-15T02:51:10;11.00;99.90
21035;DHT22;10676;50.848;3.272;2022-11-15T02:53:36;11.00;99.90
21035;DHT22;10676;50.848;3.272;2022-11-15T02:56:02;10.90;99.90
21035;DHT22;10676;50.848;3.272;2022-11-15T03:04:54;10.80;99.90
21035;DHT22;10676;50.848;3.272;2022-11-15T03:08:22;10.80;99.90
21035;DHT22;10676;50.848;3.272;2022-11-15T03:10:22;10.80;99.90
21035;DHT22;10676;50.848;3.272;2022-11-15T03:13:05;10.70;99.90
21035;DHT22;10676;50.848;3.272;2022-11-15T03:15:38;10.70;99.90
21035;DHT22;10676;50.848;3.272;2022-11-15T03:18:19;10.60;99.90
21035;DHT22;10676;50.848;3.272;2022-11-15T03:20:47;10.60;99.90
21035;DHT22;10676;50.848;3.272;2022-11-15T03:23:13;10.50;99.90
21035;DHT22;10676;50.848;3.272;2022-11-15T03:25:48;10.50;99.90
21035;DHT22;10676;50.848;3.272;2022-11-15T03:28:24;10.40;99.90
21035;DHT22;10676;50.848;3.272;2022-11-15T03:30:51;10.40;99.90
21035;DHT22;10676;50.848;3.272;2022-11-15T03:33:19;10.30;99.90
21035;DHT22;10676;50.848;3.272;2022-11-15T03:35:47;10.40;99.90
21035;DHT22;10676;50.848;3.272;2022-11-15T03:38:25;10.30;99.90
21035;DHT22;10676;50.848;3.272;2022-11-15T03:40:59;10.30;99.90
21035;DHT22;10676;50.848;3.272;2022-11-15T03:43:41;10.30;99.90
21035;DHT22;10676;50.848;3.272;2022-11-15T03:46:19;10.20;99.90
21035;DHT22;10676;50.848;3.272;2022-11-15T03:48:52;10.20;99.90
21035;DHT22;10676;50.848;3.272;2022-11-15T03:51:19;10.20;99.90
21035;DHT22;10676;50.848;3.272;2022-11-15T03:53:45;10.10;99.90
21035;DHT22;10676;50.848;3.272;2022-11-15T03:56:11;10.10;99.90
21035;DHT22;10676;50.848;3.272;2022-11-15T03:58:37;10.00;99.90
21035;DHT22;10676;50.848;3.272;2022-11-15T04:01:03;10.00;99.90
21035;DHT22;10676;50.848;3.272;2022-11-15T04:03:28;9.90;99.90
21035;DHT22;10676;50.848;3.272;2022-11-15T04:05:54;10.00;99.90
21035;DHT22;10676;50.848;3.272;2022-11-15T04:08:20;9.90;99.90
21035;DHT22;10676;50.848;3.272;2022-11-15T04:10:45;9.80;99.90
21035;DHT22;10676;50.848;3.272;2022-11-15T04:13:13;9.70;99.90
21035;DHT22;10676;50.848;3.272;2022-11-15T04:15:39;9.70;99.90
21035;DHT22;10676;50.848;3.272;2022-11-15T04:18:04;9.60;99.90
21035;DHT22;10676;50.848;3.272;2022-11-15T04:20:31;9.50;99.90
21035;DHT22;10676;50.848;3.272;2022-11-15T04:23:22;9.50;99.90
21035;DHT22;10676;50.848;3.272;2022-11-15T04:26:14;9.40;99.90
21035;DHT22;10676;50.848;3.272;2022-11-15T04:28:41;9.30;99.90
21035;DHT22;10676;50.848;3.272;2022-11-15T04:31:26;9.30;99.90
21035;DHT22;10676;50.848;3.272;2022-11-15T04:33:52;9.20;99.90
21035;DHT22;10676;50.848;3.272;2022-11-15T04:36:19;9.10;99.90
21035;DHT22;10676;50.848;3.272;2022-11-15T04:39:03;9.00;99.90
21035;DHT22;10676;50.848;3.272;2022-11-15T04:41:29;9.00;99.90
21035;DHT22;10676;50.848;3.272;2022-11-15T04:43:55;9.00;99.90
21035;DHT22;10676;50.848;3.272;2022-11-15T04:46:23;8.90;99.90
21035;DHT22;10676;50.848;3.272;2022-11-15T04:48:50;8.90;99.90
21035;DHT22;10676;50.848;3.272;2022-11-15T04:51:16;8.80;99.90
21035;DHT22;10676;50.848;3.272;2022-11-15T04:53:42;8.80;99.90
21035;DHT22;10676;50.848;3.272;2022-11-15T04:56:07;8.80;99.90
21035;DHT22;10676;50.848;3.272;2022-11-15T04:58:33;8.80;99.90
21035;DHT22;10676;50.848;3.272;2022-11-15T05:01:07;8.80;99.90
21035;DHT22;10676;50.848;3.272;2022-11-15T05:03:33;8.80;99.90
21035;DHT22;10676;50.848;3.272;2022-11-15T05:06:17;8.80;99.90
21035;DHT22;10676;50.848;3.272;2022-11-15T05:08:42;8.80;99.90
21035;DHT22;10676;50.848;3.272;2022-11-15T05:11:08;8.70;99.90
21035;DHT22;10676;50.848;3.272;2022-11-15T05:13:34;8.70;99.90
21035;DHT22;10676;50.848;3.272;2022-11-15T05:15:59;8.70;99.90
21035;DHT22;10676;50.848;3.272;2022-11-15T05:18:26;8.70;99.90
21035;DHT22;10676;50.848;3.272;2022-11-15T05:20:51;8.60;99.90
21035;DHT22;10676;50.848;3.272;2022-11-15T05:23:17;8.60;99.90
21035;DHT22;10676;50.848;3.272;2022-11-15T05:25:43;8.60;99.90
21035;DHT22;10676;50.848;3.272;2022-11-15T05:28:08;8.60;99.90
21035;DHT22;10676;50.848;3.272;2022-11-15T05:30:34;8.60;99.90
21035;DHT22;10676;50.848;3.272;2022-11-15T05:33:00;8.50;99.90
21035;DHT22;10676;50.848;3.272;2022-11-15T05:35:37;8.50;99.90
21035;DHT22;10676;50.848;3.272;2022-11-15T05:38:04;8.50;99.90
21035;DHT22;10676;50.848;3.272;2022-11-15T05:40:30;8.50;99.90
21035;DHT22;10676;50.848;3.272;2022-11-15T05:42:57;8.50;99.90
21035;DHT22;10676;50.848;3.272;2022-11-15T05:45:23;8.40;99.90
21035;DHT22;10676;50.848;3.272;2022-11-15T05:47:50;8.40;99.90
21035;DHT22;10676;50.848;3.272;2022-11-15T05:50:17;8.30;99.90
21035;DHT22;10676;50.848;3.272;2022-11-15T05:52:44;8.30;99.90
21035;DHT22;10676;50.848;3.272;2022-11-15T05:55:10;8.30;99.90
21035;DHT22;10676;50.848;3.272;2022-11-15T05:57:37;8.40;99.90
21035;DHT22;10676;50.848;3.272;2022-11-15T06:00:03;8.30;99.90
21035;DHT22;10676;50.848;3.272;2022-11-15T06:02:29;8.40;99.90
21035;DHT22;10676;50.848;3.272;2022-11-15T06:04:55;8.40;99.90
21035;DHT22;10676;50.848;3.272;2022-11-15T06:07:20;8.50;99.90
21035;DHT22;10676;50.848;3.272;2022-11-15T06:09:46;8.50;99.90
21035;DHT22;10676;50.848;3.272;2022-11-15T06:12:12;8.70;99.90
21035;DHT22;10676;50.848;3.272;2022-11-15T06:14:38;8.70;99.90
21035;DHT22;10676;50.848;3.272;2022-11-15T06:17:04;8.80;99.90
21035;DHT22;10676;50.848;3.272;2022-11-15T06:19:29;8.80;99.90
21035;DHT22;10676;50.848;3.272;2022-11-15T06:21:59;8.90;99.90
21035;DHT22;10676;50.848;3.272;2022-11-15T06:24:24;8.90;99.90
21035;DHT22;10676;50.848;3.272;2022-11-15T06:26:50;8.90;99.90
21035;DHT22;10676;50.848;3.272;2022-11-15T06:29:16;8.90;99.90
21035;DHT22;10676;50.848;3.272;2022-11-15T06:31:42;8.90;99.90
21035;DHT22;10676;50.848;3.272;2022-11-15T06:34:07;8.80;99.90
21035;DHT22;10676;50.848;3.272;2022-11-15T06:36:34;8.80;99.90
21035;DHT22;10676;50.848;3.272;2022-11-15T06:39:01;8.80;99.90
21035;DHT22;10676;50.848;3.272;2022-11-15T06:41:27;8.80;99.90
21035;DHT22;10676;50.848;3.272;2022-11-15T06:43:53;8.80;99.90
21035;DHT22;10676;50.848;3.272;2022-11-15T06:46:18;8.80;99.90
21035;DHT22;10676;50.848;3.272;2022-11-15T06:48:44;8.80;99.90
21035;DHT22;10676;50.848;3.272;2022-11-15T06:51:09;8.80;99.90
21035;DHT22;10676;50.848;3.272;2022-11-15T06:53:35;8.80;99.90
21035;DHT22;10676;50.848;3.272;2022-11-15T06:56:02;8.90;99.90
21035;DHT22;10676;50.848;3.272;2022-11-15T06:58:29;8.90;99.90
21035;DHT22;10676;50.848;3.272;2022-11-15T07:00:59;8.90;99.90
21035;DHT22;10676;50.848;3.272;2022-11-15T07:03:25;8.90;99.90
21035;DHT22;10676;50.848;3.272;2022-11-15T07:05:52;8.90;99.90
21035;DHT22;10676;50.848;3.272;2022-11-15T07:08:18;8.90;99.90
21035;DHT22;10676;50.848;3.272;2022-11-15T07:10:44;8.90;99.90
21035;DHT22;10676;50.848;3.272;2022-11-15T07:13:10;9.00;99.90
21035;DHT22;10676;50.848;3.272;2022-11-15T07:15:36;9.00;99.90
21035;DHT22;10676;50.848;3.272;2022-11-15T07:18:01;9.00;99.90
21035;DHT22;10676;50.848;3.272;2022-11-15T07:20:27;9.10;99.90
21035;DHT22;10676;50.848;3.272;2022-11-15T07:23:00;9.10;99.90
21035;DHT22;10676;50.848;3.272;2022-11-15T07:25:26;9.10;99.90
21035;DHT22;10676;50.848;3.272;2022-11-15T07:27:58;9.10;99.90
21035;DHT22;10676;50.848;3.272;2022-11-15T07:30:25;9.20;99.90
21035;DHT22;10676;50.848;3.272;2022-11-15T07:32:58;9.20;99.90
21035;DHT22;10676;50.848;3.272;2022-11-15T07:35:25;9.20;99.90
21035;DHT22;10676;50.848;3.272;2022-11-15T07:37:59;9.30;99.90
21035;DHT22;10676;50.848;3.272;2022-11-15T07:40:26;9.30;99.90
21035;DHT22;10676;50.848;3.272;2022-11-15T07:42:52;9.40;99.90
21035;DHT22;10676;50.848;3.272;2022-11-15T07:45:18;9.40;99.90
21035;DHT22;10676;50.848;3.272;2022-11-15T07:47:48;9.50;99.90
21035;DHT22;10676;50.848;3.272;2022-11-15T07:50:15;9.60;99.90
21035;DHT22;10676;50.848;3.272;2022-11-15T07:52:41;9.70;99.90
21035;DHT22;10676;50.848;3.272;2022-11-15T07:55:07;9.80;99.90
21035;DHT22;10676;50.848;3.272;2022-11-15T07:57:32;9.80;99.90
21035;DHT22;10676;50.848;3.272;2022-11-15T07:59:58;9.90;99.90
21035;DHT22;10676;50.848;3.272;2022-11-15T08:02:24;9.90;99.90
21035;DHT22;10676;50.848;3.272;2022-11-15T08:04:49;10.00;99.90
21035;DHT22;10676;50.848;3.272;2022-11-15T08:07:15;10.10;99.90
21035;DHT22;10676;50.848;3.272;2022-11-15T08:09:41;10.10;99.90
21035;DHT22;10676;50.848;3.272;2022-11-15T08:12:06;10.20;99.90
21035;DHT22;10676;50.848;3.272;2022-11-15T08:14:32;10.20;99.90
21035;DHT22;10676;50.848;3.272;2022-11-15T08:16:58;10.30;99.90
21035;DHT22;10676;50.848;3.272;2022-11-15T08:19:23;10.30;99.90
21035;DHT22;10676;50.848;3.272;2022-11-15T08:21:49;10.40;99.90
21035;DHT22;10676;50.848;3.272;2022-11-15T08:24:15;10.40;99.90
21035;DHT22;10676;50.848;3.272;2022-11-15T08:26:40;10.50;99.90
21035;DHT22;10676;50.848;3.272;2022-11-15T08:29:06;10.70;99.90
21035;DHT22;10676;50.848;3.272;2022-11-15T08:31:35;10.90;99.90
21035;DHT22;10676;50.848;3.272;2022-11-15T08:34:05;11.00;99.90
21035;DHT22;10676;50.848;3.272;2022-11-15T08:36:31;11.00;99.90
21035;DHT22;10676;50.848;3.272;2022-11-15T08:38:56;11.10;99.90
21035;DHT22;10676;50.848;3.272;2022-11-15T08:41:31;11.10;99.90
21035;DHT22;10676;50.848;3.272;2022-11-15T08:43:57;11.20;99.90
21035;DHT22;10676;50.848;3.272;2022-11-15T08:46:22;11.20;99.90
21035;DHT22;10676;50.848;3.272;2022-11-15T08:48:48;11.30;99.90
21035;DHT22;10676;50.848;3.272;2022-11-15T08:51:14;11.30;99.90
21035;DHT22;10676;50.848;3.272;2022-11-15T08:53:40;11.40;99.90
21035;DHT22;10676;50.848;3.272;2022-11-15T08:56:10;11.40;99.90
21035;DHT22;10676;50.848;3.272;2022-11-15T08:58:37;11.50;99.90
21035;DHT22;10676;50.848;3.272;2022-11-15T09:01:03;11.60;99.90
21035;DHT22;10676;50.848;3.272;2022-11-15T09:03:29;11.70;99.90
21035;DHT22;10676;50.848;3.272;2022-11-15T09:05:59;11.80;99.90
21035;DHT22;10676;50.848;3.272;2022-11-15T09:08:29;11.90;99.90
21035;DHT22;10676;50.848;3.272;2022-11-15T09:10:55;12.00;99.90
21035;DHT22;10676;50.848;3.272;2022-11-15T09:13:22;12.40;99.90
21035;DHT22;10676;50.848;3.272;2022-11-15T09:15:47;13.00;99.90
21035;DHT22;10676;50.848;3.272;2022-11-15T09:18:13;13.80;99.90
21035;DHT22;10676;50.848;3.272;2022-11-15T09:20:39;14.60;99.90
21035;DHT22;10676;50.848;3.272;2022-11-15T09:23:05;15.20;99.90
21035;DHT22;10676;50.848;3.272;2022-11-15T09:25:31;15.50;99.90
21035;DHT22;10676;50.848;3.272;2022-11-15T09:27:57;15.50;99.90
21035;DHT22;10676;50.848;3.272;2022-11-15T09:30:24;15.30;99.90
21035;DHT22;10676;50.848;3.272;2022-11-15T09:32:50;15.10;99.90
21035;DHT22;10676;50.848;3.272;2022-11-15T09:35:17;15.10;99.90
21035;DHT22;10676;50.848;3.272;2022-11-15T09:37:42;15.30;99.90
21035;DHT22;10676;50.848;3.272;2022-11-15T09:40:16;15.30;99.90
21035;DHT22;10676;50.848;3.272;2022-11-15T09:45:47;15.90;99.90
21035;DHT22;10676;50.848;3.272;2022-11-15T09:48:52;16.20;99.90
21035;DHT22;10676;50.848;3.272;2022-11-15T09:51:29;16.50;99.90
21035;DHT22;10676;50.848;3.272;2022-11-15T09:56:44;16.20;99.90
21035;DHT22;10676;50.848;3.272;2022-11-15T10:04:43;16.10;99.90
21035;DHT22;10676;50.848;3.272;2022-11-15T10:07:20;16.10;99.90
21035;DHT22;10676;50.848;3.272;2022-11-15T10:09:51;16.00;99.90
21035;DHT22;10676;50.848;3.272;2022-11-15T10:12:18;16.00;99.90
21035;DHT22;10676;50.848;3.272;2022-11-15T10:14:46;15.90;99.90
21035;DHT22;10676;50.848;3.272;2022-11-15T10:30:39;16.00;99.90
21035;DHT22;10676;50.848;3.272;2022-11-15T10:33:34;16.10;99.90
21035;DHT22;10676;50.848;3.272;2022-11-15T10:41:20;16.50;99.90
21035;DHT22;10676;50.848;3.272;2022-11-15T10:44:02;16.60;99.90
21035;DHT22;10676;50.848;3.272;2022-11-15T10:46:28;16.80;99.90
21035;DHT22;10676;50.848;3.272;2022-11-15T10:49:15;17.00;99.90
21035;DHT22;10676;50.848;3.272;2022-11-15T10:51:53;17.00;99.90
21035;DHT22;10676;50.848;3.272;2022-11-15T10:54:39;16.90;99.90
21035;DHT22;10676;50.848;3.272;2022-11-15T10:57:18;16.80;99.90
21035;DHT22;10676;50.848;3.272;2022-11-15T10:59:50;16.70;99.90
21035;DHT22;10676;50.848;3.272;2022-11-15T11:02:39;16.60;99.90
21035;DHT22;10676;50.848;3.272;2022-11-15T11:05:38;16.60;99.90
21035;DHT22;10676;50.848;3.272;2022-11-15T11:10:36;16.50;99.90
21035;DHT22;10676;50.848;3.272;2022-11-15T11:13:15;16.50;99.90
21035;DHT22;10676;50.848;3.272;2022-11-15T11:15:51;16.60;99.90
21035;DHT22;10676;50.848;3.272;2022-11-15T11:18:30;16.60;99.90
21035;DHT22;10676;50.848;3.272;2022-11-15T11:21:00;16.70;99.90
21035;DHT22;10676;50.848;3.272;2022-11-15T11:28:57;16.70;99.90
21035;DHT22;10676;50.848;3.272;2022-11-15T11:31:51;16.60;99.90
21035;DHT22;10676;50.848;3.272;2022-11-15T11:48:43;16.00;99.90
21035;DHT22;10676;50.848;3.272;2022-11-15T11:51:23;16.00;99.90
21035;DHT22;10676;50.848;3.272;2022-11-15T11:53:57;15.90;99.90
21035;DHT22;10676;50.848;3.272;2022-11-15T11:56:32;15.90;99.90
21035;DHT22;10676;50.848;3.272;2022-11-15T12:02:07;15.80;99.90
21035;DHT22;10676;50.848;3.272;2022-11-15T12:04:40;15.70;99.90
21035;DHT22;10676;50.848;3.272;2022-11-15T12:07:20;15.70;99.90
21035;DHT22;10676;50.848;3.272;2022-11-15T12:18:24;15.40;99.90
21035;DHT22;10676;50.848;3.272;2022-11-15T12:21:13;15.30;99.90
21035;DHT22;10676;50.848;3.272;2022-11-15T12:23:46;15.30;99.90
21035;DHT22;10676;50.848;3.272;2022-11-15T12:26:30;15.30;99.90
21035;DHT22;10676;50.848;3.272;2022-11-15T12:29:00;15.20;99.90
21035;DHT22;10676;50.848;3.272;2022-11-15T12:34:02;15.20;99.90
21035;DHT22;10676;50.848;3.272;2022-11-15T12:36:38;15.20;99.90
21035;DHT22;10676;50.848;3.272;2022-11-15T12:41:35;15.20;99.90
21035;DHT22;10676;50.848;3.272;2022-11-15T12:44:02;15.00;99.90
21035;DHT22;10676;50.848;3.272;2022-11-15T12:49:02;14.80;99.90
21035;DHT22;10676;50.848;3.272;2022-11-15T13:02:25;13.90;99.90
21035;DHT22;10676;50.848;3.272;2022-11-15T13:04:54;13.90;99.90
21035;DHT22;10676;50.848;3.272;2022-11-15T13:10:28;13.60;99.90
21035;DHT22;10676;50.848;3.272;2022-11-15T13:12:48;13.60;99.90
21035;DHT22;10676;50.848;3.272;2022-11-15T13:17:50;13.40;99.90
21035;DHT22;10676;50.848;3.272;2022-11-15T13:22:49;13.30;99.90
21035;DHT22;10676;50.848;3.272;2022-11-15T13:30:52;13.10;99.90
21035;DHT22;10676;50.848;3.272;2022-11-15T13:33:34;13.10;99.90
21035;DHT22;10676;50.848;3.272;2022-11-15T13:36:07;13.10;99.90
21035;DHT22;10676;50.848;3.272;2022-11-15T13:38:37;13.00;99.90
21035;DHT22;10676;50.848;3.272;2022-11-15T13:41:21;13.00;99.90
21035;DHT22;10676;50.848;3.272;2022-11-15T13:43:52;12.90;99.90
21035;DHT22;10676;50.848;3.272;2022-11-15T13:46:29;12.90;99.90
21035;DHT22;10676;50.848;3.272;2022-11-15T13:48:58;12.80;99.90
21035;DHT22;10676;50.848;3.272;2022-11-15T13:51:42;12.80;99.90
21035;DHT22;10676;50.848;3.272;2022-11-15T13:54:12;12.70;99.90
21035;DHT22;10676;50.848;3.272;2022-11-15T13:56:43;12.70;99.90
21035;DHT22;10676;50.848;3.272;2022-11-15T13:59:24;12.70;99.90
21035;DHT22;10676;50.848;3.272;2022-11-15T14:01:52;12.60;99.90
21035;DHT22;10676;50.848;3.272;2022-11-15T14:04:21;12.60;99.90
21035;DHT22;10676;50.848;3.272;2022-11-15T14:06:52;12.50;99.90
21035;DHT22;10676;50.848;3.272;2022-11-15T14:09:40;12.50;99.90
21035;DHT22;10676;50.848;3.272;2022-11-15T14:12:32;12.40;99.90
21035;DHT22;10676;50.848;3.272;2022-11-15T14:15:00;12.30;99.90
21035;DHT22;10676;50.848;3.272;2022-11-15T14:19:55;12.40;99.90
21035;DHT22;10676;50.848;3.272;2022-11-15T14:22:23;12.40;99.90
21035;DHT22;10676;50.848;3.272;2022-11-15T14:25:12;12.30;99.90
21035;DHT22;10676;50.848;3.272;2022-11-15T14:27:39;12.30;99.90
21035;DHT22;10676;50.848;3.272;2022-11-15T14:30:06;12.40;99.90
21035;DHT22;10676;50.848;3.272;2022-11-15T14:32:49;12.30;99.90
21035;DHT22;10676;50.848;3.272;2022-11-15T14:35:24;12.30;99.90
21035;DHT22;10676;50.848;3.272;2022-11-15T14:37:50;12.30;99.90
21035;DHT22;10676;50.848;3.272;2022-11-15T14:40:21;12.30;99.90
21035;DHT22;10676;50.848;3.272;2022-11-15T14:42:48;12.30;99.90
21035;DHT22;10676;50.848;3.272;2022-11-15T14:45:14;12.30;99.90
21035;DHT22;10676;50.848;3.272;2022-11-15T14:47:41;12.30;99.90
21035;DHT22;10676;50.848;3.272;2022-11-15T14:50:14;12.30;99.90
21035;DHT22;10676;50.848;3.272;2022-11-15T14:52:40;12.30;99.90
21035;DHT22;10676;50.848;3.272;2022-11-15T14:55:22;12.30;99.90
21035;DHT22;10676;50.848;3.272;2022-11-15T14:57:48;12.30;99.90
21035;DHT22;10676;50.848;3.272;2022-11-15T15:00:15;12.30;99.90
21035;DHT22;10676;50.848;3.272;2022-11-15T15:02:42;12.30;99.90
21035;DHT22;10676;50.848;3.272;2022-11-15T15:05:20;12.30;99.90
21035;DHT22;10676;50.848;3.272;2022-11-15T15:07:46;12.30;99.90
21035;DHT22;10676;50.848;3.272;2022-11-15T15:10:13;12.40;99.90
21035;DHT22;10676;50.848;3.272;2022-11-15T15:12:39;12.40;99.90
21035;DHT22;10676;50.848;3.272;2022-11-15T15:15:06;12.40;99.90
21035;DHT22;10676;50.848;3.272;2022-11-15T15:17:36;12.40;99.90
21035;DHT22;10676;50.848;3.272;2022-11-15T15:20:02;12.40;99.90
21035;DHT22;10676;50.848;3.272;2022-11-15T15:22:28;12.40;99.90
21035;DHT22;10676;50.848;3.272;2022-11-15T15:24:54;12.40;99.90
21035;DHT22;10676;50.848;3.272;2022-11-15T15:27:20;12.50;99.90
21035;DHT22;10676;50.848;3.272;2022-11-15T15:29:45;12.50;99.90
21035;DHT22;10676;50.848;3.272;2022-11-15T15:32:11;12.50;99.90
21035;DHT22;10676;50.848;3.272;2022-11-15T15:34:38;12.50;99.90
21035;DHT22;10676;50.848;3.272;2022-11-15T15:37:24;12.50;99.90
21035;DHT22;10676;50.848;3.272;2022-11-15T15:39:54;12.50;99.90
21035;DHT22;10676;50.848;3.272;2022-11-15T15:42:21;12.60;99.90
21035;DHT22;10676;50.848;3.272;2022-11-15T15:44:48;12.60;99.90
21035;DHT22;10676;50.848;3.272;2022-11-15T15:47:20;12.60;99.90
21035;DHT22;10676;50.848;3.272;2022-11-15T15:49:46;12.60;99.90
21035;DHT22;10676;50.848;3.272;2022-11-15T15:52:12;12.60;99.90
21035;DHT22;10676;50.848;3.272;2022-11-15T15:54:39;12.60;99.90
21035;DHT22;10676;50.848;3.272;2022-11-15T15:57:06;12.60;99.90
21035;DHT22;10676;50.848;3.272;2022-11-15T15:59:31;12.60;99.90
21035;DHT22;10676;50.848;3.272;2022-11-15T16:01:57;12.60;99.90
21035;DHT22;10676;50.848;3.272;2022-11-15T16:04:23;12.60;99.90
21035;DHT22;10676;50.848;3.272;2022-11-15T16:06:48;12.60;99.90
21035;DHT22;10676;50.848;3.272;2022-11-15T16:09:17;12.60;99.90
21035;DHT22;10676;50.848;3.272;2022-11-15T16:11:45;12.60;99.90
21035;DHT22;10676;50.848;3.272;2022-11-15T16:14:11;12.60;99.90
21035;DHT22;10676;50.848;3.272;2022-11-15T16:16:36;12.70;99.90
21035;DHT22;10676;50.848;3.272;2022-11-15T16:19:04;12.70;99.90
21035;DHT22;10676;50.848;3.272;2022-11-15T16:21:30;12.70;99.90
21035;DHT22;10676;50.848;3.272;2022-11-15T16:23:55;12.70;99.90
21035;DHT22;10676;50.848;3.272;2022-11-15T16:26:24;12.70;99.90
21035;DHT22;10676;50.848;3.272;2022-11-15T16:28:51;12.70;99.90
21035;DHT22;10676;50.848;3.272;2022-11-15T16:31:17;12.60;99.90
21035;DHT22;10676;50.848;3.272;2022-11-15T16:33:45;12.70;99.90
21035;DHT22;10676;50.848;3.272;2022-11-15T16:36:26;12.70;99.90
21035;DHT22;10676;50.848;3.272;2022-11-15T16:38:52;12.70;99.90
21035;DHT22;10676;50.848;3.272;2022-11-15T16:41:18;12.70;99.90
21035;DHT22;10676;50.848;3.272;2022-11-15T16:43:50;12.70;99.90
21035;DHT22;10676;50.848;3.272;2022-11-15T16:46:24;12.70;99.90
21035;DHT22;10676;50.848;3.272;2022-11-15T16:48:51;12.70;99.90
21035;DHT22;10676;50.848;3.272;2022-11-15T16:51:18;12.70;99.90
21035;DHT22;10676;50.848;3.272;2022-11-15T16:53:44;12.70;99.90
21035;DHT22;10676;50.848;3.272;2022-11-15T16:56:26;12.70;99.90
21035;DHT22;10676;50.848;3.272;2022-11-15T16:58:55;12.70;99.90
21035;DHT22;10676;50.848;3.272;2022-11-15T17:01:42;12.70;99.90
21035;DHT22;10676;50.848;3.272;2022-11-15T17:04:16;12.70;99.90
21035;DHT22;10676;50.848;3.272;2022-11-15T17:06:44;12.70;99.90
21035;DHT22;10676;50.848;3.272;2022-11-15T17:09:21;12.60;99.90
21035;DHT22;10676;50.848;3.272;2022-11-15T17:11:49;12.60;99.90
21035;DHT22;10676;50.848;3.272;2022-11-15T17:14:15;12.50;99.90
21035;DHT22;10676;50.848;3.272;2022-11-15T17:16:41;12.50;99.90
21035;DHT22;10676;50.848;3.272;2022-11-15T17:19:17;12.50;99.90
21035;DHT22;10676;50.848;3.272;2022-11-15T17:21:44;12.50;99.90
21035;DHT22;10676;50.848;3.272;2022-11-15T17:24:10;12.50;99.90
21035;DHT22;10676;50.848;3.272;2022-11-15T17:26:37;12.50;99.90
21035;DHT22;10676;50.848;3.272;2022-11-15T17:29:03;12.50;99.90
21035;DHT22;10676;50.848;3.272;2022-11-15T17:31:33;12.40;99.90
21035;DHT22;10676;50.848;3.272;2022-11-15T17:34:00;12.40;99.90
21035;DHT22;10676;50.848;3.272;2022-11-15T17:36:26;12.40;99.90
21035;DHT22;10676;50.848;3.272;2022-11-15T17:38:52;12.40;99.90
21035;DHT22;10676;50.848;3.272;2022-11-15T17:41:18;12.40;99.90
21035;DHT22;10676;50.848;3.272;2022-11-15T17:43:45;12.40;99.90
21035;DHT22;10676;50.848;3.272;2022-11-15T17:46:16;12.40;99.90
21035;DHT22;10676;50.848;3.272;2022-11-15T17:48:44;12.40;99.90
21035;DHT22;10676;50.848;3.272;2022-11-15T17:51:12;12.40;99.90
21035;DHT22;10676;50.848;3.272;2022-11-15T17:53:40;12.30;99.90